createdAt,value
2019-01-18T00:00:04.998Z,4.05
2019-01-18T00:01:26.365Z,3.62
2019-01-18T00:02:33.014Z,3.50
2019-01-18T00:03:37.085Z,3.45
2019-01-18T00:04:41.135Z,4.12
2019-01-18T00:05:45.194Z,4.03
2019-01-18T00:06:49.253Z,4.35
2019-01-18T00:07:53.316Z,4.15
2019-01-18T00:08:57.394Z,4.90
2019-01-18T00:10:01.452Z,4.60
2019-01-18T00:11:05.520Z,4.40
2019-01-18T00:12:09.716Z,4.28
2019-01-18T00:13:13.835Z,4.10
2019-01-18T00:14:20.505Z,4.40
2019-01-18T00:15:24.771Z,4.55
2019-01-18T00:16:28.887Z,5.97
2019-01-18T00:17:32.943Z,3.98
2019-01-18T00:18:37.088Z,3.77
2019-01-18T00:19:41.187Z,4.17
2019-01-18T00:20:45.426Z,4.58
2019-01-18T00:21:49.499Z,4.00
2019-01-18T00:22:53.724Z,4.35
2019-01-18T00:23:57.871Z,4.55
2019-01-18T00:25:01.943Z,4.83
2019-01-18T00:26:06.020Z,4.65
2019-01-18T00:27:10.227Z,4.12
2019-01-18T00:28:14.396Z,5.47
2019-01-18T00:29:18.458Z,4.62
2019-01-18T00:30:22.566Z,5.20
2019-01-18T00:31:26.618Z,5.65
2019-01-18T00:32:30.682Z,5.53
2019-01-18T00:33:36.058Z,4.28
2019-01-18T00:34:40.119Z,5.33
2019-01-18T00:35:44.238Z,4.25
2019-01-18T00:36:48.303Z,5.53
2019-01-18T00:37:52.363Z,5.80
2019-01-18T00:38:56.430Z,4.30
2019-01-18T00:40:00.484Z,4.62
2019-01-18T00:41:04.628Z,4.70
2019-01-18T00:42:08.821Z,4.72
2019-01-18T00:43:12.926Z,5.28
2019-01-18T00:44:16.979Z,3.50
2019-01-18T00:45:21.094Z,4.90
2019-01-18T00:46:25.299Z,5.47
2019-01-18T00:47:29.399Z,4.90
2019-01-18T00:48:33.512Z,4.60
2019-01-18T00:49:37.613Z,5.37
2019-01-18T00:50:41.732Z,5.30
2019-01-18T00:51:45.792Z,5.15
2019-01-18T00:52:49.850Z,6.92
2019-01-18T00:53:53.948Z,5.58
2019-01-18T00:54:58.052Z,6.05
2019-01-18T00:56:02.122Z,5.12
2019-01-18T00:57:06.189Z,6.40
2019-01-18T00:58:10.631Z,5.83
2019-01-18T00:59:14.751Z,4.17
2019-01-18T01:00:24.115Z,5.17
2019-01-18T01:01:28.194Z,4.83
2019-01-18T01:02:32.272Z,5.28
2019-01-18T01:03:36.334Z,5.47
2019-01-18T01:04:40.387Z,5.80
2019-01-18T01:05:44.438Z,5.25
2019-01-18T01:06:48.506Z,4.60
2019-01-18T01:07:52.563Z,6.37
2019-01-18T01:08:56.666Z,5.40
2019-01-18T01:10:00.729Z,6.35
2019-01-18T01:11:05.211Z,5.83
2019-01-18T01:12:09.419Z,6.20
2019-01-18T01:13:13.549Z,5.85
2019-01-18T01:14:17.607Z,5.67
2019-01-18T01:15:21.758Z,6.72
2019-01-18T01:16:25.809Z,6.05
2019-01-18T01:17:29.900Z,6.25
2019-01-18T01:18:33.970Z,6.80
2019-01-18T01:19:38.106Z,5.72
2019-01-18T01:20:42.169Z,6.53
2019-01-18T01:21:46.223Z,5.25
2019-01-18T01:22:50.332Z,5.55
2019-01-18T01:23:54.387Z,5.60
2019-01-18T01:24:58.467Z,5.53
2019-01-18T01:26:02.534Z,6.62
2019-01-18T01:27:06.616Z,6.03
2019-01-18T01:28:10.814Z,7.17
2019-01-18T01:29:14.946Z,6.87
2019-01-18T01:30:20.942Z,6.60
2019-01-18T01:31:25.019Z,7.17
2019-01-18T01:32:29.291Z,6.55
2019-01-18T01:33:33.371Z,6.83
2019-01-18T01:34:37.440Z,6.67
2019-01-18T01:35:41.497Z,5.97
2019-01-18T01:36:45.582Z,7.70
2019-01-18T01:37:49.683Z,7.80
2019-01-18T01:38:53.794Z,7.62
2019-01-18T01:39:57.946Z,4.00
2019-01-18T01:41:02.051Z,7.25
2019-01-18T01:42:06.144Z,8.13
2019-01-18T01:43:10.489Z,8.20
2019-01-18T01:44:14.828Z,9.18
2019-01-18T01:45:18.888Z,10.03
2019-01-18T01:46:22.967Z,9.20
2019-01-18T01:47:27.035Z,8.83
2019-01-18T01:48:31.111Z,8.68
2019-01-18T01:49:35.185Z,10.82
2019-01-18T01:50:39.255Z,11.08
2019-01-18T01:51:43.519Z,11.18
2019-01-18T01:52:48.921Z,12.75
2019-01-18T01:53:53.261Z,10.45
2019-01-18T01:54:57.394Z,10.85
2019-01-18T01:56:03.187Z,11.70
2019-01-18T01:57:07.768Z,9.15
2019-01-18T01:58:12.174Z,9.98
2019-01-18T01:59:16.467Z,12.55
2019-01-18T02:00:25.225Z,12.73
2019-01-18T02:01:29.289Z,10.03
2019-01-18T02:02:33.362Z,12.07
2019-01-18T02:03:37.434Z,13.00
2019-01-18T02:04:41.559Z,11.53
2019-01-18T02:05:45.663Z,12.30
2019-01-18T02:06:49.775Z,11.05
2019-01-18T02:07:53.840Z,10.63
2019-01-18T02:08:57.903Z,12.93
2019-01-18T02:10:01.987Z,12.35
2019-01-18T02:11:06.065Z,12.03
2019-01-18T02:12:10.400Z,11.25
2019-01-18T02:13:14.531Z,10.20
2019-01-18T02:14:18.599Z,12.15
2019-01-18T02:15:24.819Z,11.90
2019-01-18T02:16:28.874Z,12.95
2019-01-18T02:17:32.930Z,12.50
2019-01-18T02:18:37.032Z,12.58
2019-01-18T02:19:41.122Z,10.93
2019-01-18T02:20:45.411Z,11.70
2019-01-18T02:21:49.551Z,13.30
2019-01-18T02:22:53.696Z,12.63
2019-01-18T02:23:57.758Z,12.00
2019-01-18T02:25:01.818Z,12.45
2019-01-18T02:26:05.906Z,11.57
2019-01-18T02:27:10.114Z,12.45
2019-01-18T02:28:14.252Z,11.65
2019-01-18T02:29:18.319Z,10.85
2019-01-18T02:30:27.259Z,9.73
2019-01-18T02:31:31.417Z,11.20
2019-01-18T02:32:35.508Z,12.05
2019-01-18T02:33:39.564Z,12.37
2019-01-18T02:34:43.616Z,13.03
2019-01-18T02:35:47.691Z,10.93
2019-01-18T02:36:51.788Z,10.13
2019-01-18T02:37:55.855Z,11.18
2019-01-18T02:38:59.998Z,10.70
2019-01-18T02:40:04.563Z,11.35
2019-01-18T02:41:08.688Z,11.50
2019-01-18T02:42:12.842Z,10.48
2019-01-18T02:43:16.920Z,11.25
2019-01-18T02:44:20.988Z,11.00
2019-01-18T02:45:25.083Z,11.80
2019-01-18T02:46:29.160Z,9.98
2019-01-18T02:47:33.298Z,9.55
2019-01-18T02:48:37.364Z,10.30
2019-01-18T02:49:41.422Z,10.93
2019-01-18T02:50:45.498Z,9.95
2019-01-18T02:51:49.563Z,9.85
2019-01-18T02:52:53.668Z,11.18
2019-01-18T02:53:57.831Z,10.15
2019-01-18T02:55:01.902Z,10.60
2019-01-18T02:56:05.962Z,10.55
2019-01-18T02:57:10.311Z,9.85
2019-01-18T02:58:14.486Z,11.10
2019-01-18T02:59:18.615Z,9.70
2019-01-18T03:00:23.748Z,10.03
2019-01-18T03:01:27.803Z,9.68
2019-01-18T03:02:31.953Z,10.18
2019-01-18T03:03:36.019Z,9.43
2019-01-18T03:04:40.108Z,9.35
2019-01-18T03:05:44.163Z,8.58
2019-01-18T03:06:48.231Z,9.00
2019-01-18T03:07:52.320Z,10.35
2019-01-18T03:08:56.382Z,8.20
2019-01-18T03:10:00.435Z,9.08
2019-01-18T03:11:04.509Z,8.40
2019-01-18T03:12:08.685Z,8.80
2019-01-18T03:13:12.774Z,10.70
2019-01-18T03:14:16.831Z,8.68
2019-01-18T03:15:20.895Z,8.00
2019-01-18T03:16:24.951Z,9.18
2019-01-18T03:17:29.015Z,10.03
2019-01-18T03:18:33.104Z,8.15
2019-01-18T03:19:37.169Z,8.10
2019-01-18T03:20:41.229Z,9.10
2019-01-18T03:21:45.300Z,9.45
2019-01-18T03:22:49.358Z,10.03
2019-01-18T03:23:53.454Z,8.83
2019-01-18T03:24:57.540Z,10.65
2019-01-18T03:26:01.594Z,9.45
2019-01-18T03:27:05.676Z,9.05
2019-01-18T03:28:09.896Z,8.60
2019-01-18T03:29:14.111Z,10.03
2019-01-18T03:30:20.503Z,8.73
2019-01-18T03:31:24.065Z,9.38
2019-01-18T03:32:28.248Z,10.18
2019-01-18T03:33:32.327Z,9.78
2019-01-18T03:34:36.398Z,8.48
2019-01-18T03:35:40.450Z,8.78
2019-01-18T03:36:48.698Z,9.58
2019-01-18T03:37:51.887Z,9.55
2019-01-18T03:38:55.982Z,11.12
2019-01-18T03:40:00.367Z,8.93
2019-01-18T03:41:04.505Z,7.97
2019-01-18T03:42:08.668Z,9.93
2019-01-18T03:43:12.736Z,10.43
2019-01-18T03:44:16.803Z,10.53
2019-01-18T03:45:20.924Z,8.75
2019-01-18T03:46:25.062Z,8.43
2019-01-18T03:47:29.233Z,10.75
2019-01-18T03:48:33.355Z,9.18
2019-01-18T03:49:38.279Z,8.70
2019-01-18T03:50:42.415Z,8.95
2019-01-18T03:51:46.601Z,9.53
2019-01-18T03:52:50.666Z,8.83
2019-01-18T03:53:54.762Z,9.60
2019-01-18T03:54:58.831Z,8.80
2019-01-18T03:56:02.893Z,9.25
2019-01-18T03:57:07.021Z,9.75
2019-01-18T03:58:11.467Z,9.10
2019-01-18T03:59:15.534Z,10.45
2019-01-18T04:00:26.388Z,9.10
2019-01-18T04:01:27.564Z,9.18
2019-01-18T04:02:31.656Z,8.85
2019-01-18T04:03:35.716Z,8.50
2019-01-18T04:04:39.795Z,8.18
2019-01-18T04:05:43.934Z,7.37
2019-01-18T04:06:47.995Z,8.43
2019-01-18T04:07:52.054Z,10.93
2019-01-18T04:08:56.115Z,9.58
2019-01-18T04:10:00.233Z,7.75
2019-01-18T04:11:04.334Z,9.78
2019-01-18T04:12:08.532Z,7.47
2019-01-18T04:13:12.728Z,7.53
2019-01-18T04:14:16.905Z,9.18
2019-01-18T04:15:21.639Z,7.58
2019-01-18T04:16:25.856Z,10.95
2019-01-18T04:17:29.958Z,9.30
2019-01-18T04:18:34.099Z,8.38
2019-01-18T04:19:38.179Z,8.33
2019-01-18T04:20:42.240Z,9.15
2019-01-18T04:21:46.311Z,9.10
2019-01-18T04:22:50.379Z,8.98
2019-01-18T04:23:54.463Z,9.48
2019-01-18T04:24:58.521Z,8.45
2019-01-18T04:26:02.776Z,9.95
2019-01-18T04:27:07.964Z,8.35
2019-01-18T04:28:12.339Z,7.40
2019-01-18T04:29:16.394Z,9.18
2019-01-18T04:30:21.404Z,7.75
2019-01-18T04:31:25.486Z,7.70
2019-01-18T04:32:29.976Z,8.08
2019-01-18T04:33:34.114Z,8.50
2019-01-18T04:34:38.191Z,9.33
2019-01-18T04:35:42.254Z,8.98
2019-01-18T04:36:46.338Z,8.68
2019-01-18T04:37:50.396Z,8.85
2019-01-18T04:38:54.463Z,8.25
2019-01-18T04:39:58.525Z,7.87
2019-01-18T04:41:02.647Z,9.23
2019-01-18T04:42:06.716Z,6.70
2019-01-18T04:43:10.902Z,7.53
2019-01-18T04:44:14.955Z,7.50
2019-01-18T04:45:19.020Z,7.28
2019-01-18T04:46:23.099Z,8.10
2019-01-18T04:47:27.205Z,7.65
2019-01-18T04:48:31.270Z,7.45
2019-01-18T04:49:35.319Z,7.70
2019-01-18T04:50:39.391Z,7.20
2019-01-18T04:51:43.459Z,7.65
2019-01-18T04:52:47.530Z,5.45
2019-01-18T04:53:51.596Z,7.70
2019-01-18T04:54:55.667Z,8.55
2019-01-18T04:55:59.726Z,7.72
2019-01-18T04:57:03.808Z,8.63
2019-01-18T04:58:07.911Z,8.70
2019-01-18T04:59:12.020Z,7.42
2019-01-18T05:00:27.575Z,8.38
2019-01-18T05:01:31.711Z,7.83
2019-01-18T05:02:35.799Z,8.38
2019-01-18T05:03:39.866Z,7.75
2019-01-18T05:04:43.928Z,8.28
2019-01-18T05:05:47.988Z,8.85
2019-01-18T05:06:52.050Z,8.53
2019-01-18T05:07:56.118Z,9.28
2019-01-18T05:09:00.192Z,8.60
2019-01-18T05:10:04.810Z,8.28
2019-01-18T05:11:08.982Z,8.25
2019-01-18T05:12:13.225Z,8.18
2019-01-18T05:13:17.318Z,8.40
2019-01-18T05:14:21.376Z,9.48
2019-01-18T05:15:27.524Z,9.58
2019-01-18T05:16:31.679Z,8.28
2019-01-18T05:17:35.743Z,8.60
2019-01-18T05:18:39.822Z,8.68
2019-01-18T05:19:43.895Z,8.18
2019-01-18T05:20:48.809Z,8.38
2019-01-18T05:21:52.952Z,8.73
2019-01-18T05:22:57.022Z,8.55
2019-01-18T05:24:01.100Z,9.35
2019-01-18T05:25:05.255Z,8.05
2019-01-18T05:26:09.790Z,8.23
2019-01-18T05:27:13.902Z,8.95
2019-01-18T05:28:17.977Z,9.15
2019-01-18T05:29:22.026Z,9.38
2019-01-18T05:30:27.839Z,8.43
2019-01-18T05:31:31.968Z,9.10
2019-01-18T05:32:36.026Z,8.05
2019-01-18T05:33:40.114Z,8.58
2019-01-18T05:34:44.183Z,7.92
2019-01-18T05:35:48.321Z,8.50
2019-01-18T05:36:52.402Z,8.83
2019-01-18T05:37:56.614Z,9.13
2019-01-18T05:39:00.696Z,9.20
2019-01-18T05:40:05.472Z,8.53
2019-01-18T05:41:09.876Z,9.10
2019-01-18T05:42:14.068Z,9.20
2019-01-18T05:43:18.154Z,8.83
2019-01-18T05:44:22.226Z,9.70
2019-01-18T05:45:26.287Z,8.83
2019-01-18T05:46:30.356Z,11.40
2019-01-18T05:47:34.419Z,12.47
2019-01-18T05:48:38.474Z,9.53
2019-01-18T05:49:42.571Z,11.50
2019-01-18T05:50:46.710Z,10.65
2019-01-18T05:51:50.759Z,13.70
2019-01-18T05:52:54.835Z,12.07
2019-01-18T05:53:58.906Z,11.25
2019-01-18T05:55:02.986Z,11.03
2019-01-18T05:56:07.059Z,11.88
2019-01-18T05:57:11.244Z,10.28
2019-01-18T05:58:15.308Z,11.18
2019-01-18T05:59:19.365Z,11.88
2019-01-18T06:00:35.058Z,10.98
2019-01-18T06:01:39.112Z,9.90
2019-01-18T06:02:43.168Z,9.75
2019-01-18T06:03:47.231Z,9.33
2019-01-18T06:04:51.699Z,10.05
2019-01-18T06:05:55.774Z,10.08
2019-01-18T06:06:59.835Z,9.93
2019-01-18T06:08:03.897Z,10.75
2019-01-18T06:09:09.154Z,9.55
2019-01-18T06:10:13.630Z,9.60
2019-01-18T06:11:17.714Z,9.70
2019-01-18T06:12:21.794Z,10.10
2019-01-18T06:13:25.855Z,9.80
2019-01-18T06:14:29.922Z,10.08
2019-01-18T06:15:33.978Z,10.55
2019-01-18T06:16:38.069Z,11.00
2019-01-18T06:17:42.192Z,10.13
2019-01-18T06:18:46.258Z,10.38
2019-01-18T06:19:50.314Z,9.88
2019-01-18T06:20:54.381Z,10.45
2019-01-18T06:21:58.465Z,11.50
2019-01-18T06:23:02.520Z,10.75
2019-01-18T06:24:06.583Z,9.58
2019-01-18T06:25:10.773Z,11.48
2019-01-18T06:26:14.850Z,10.45
2019-01-18T06:27:18.922Z,10.85
2019-01-18T06:28:22.975Z,10.88
2019-01-18T06:29:27.102Z,10.82
2019-01-18T06:30:31.154Z,10.58
2019-01-18T06:31:35.251Z,10.63
2019-01-18T06:32:39.368Z,10.60
2019-01-18T06:33:43.496Z,10.95
2019-01-18T06:34:47.547Z,10.28
2019-01-18T06:35:51.707Z,10.38
2019-01-18T06:36:55.796Z,11.08
2019-01-18T06:37:59.860Z,10.85
2019-01-18T06:39:05.802Z,10.93
2019-01-18T06:40:11.879Z,10.48
2019-01-18T06:41:21.379Z,12.28
2019-01-18T06:42:25.467Z,10.82
2019-01-18T06:43:29.540Z,10.98
2019-01-18T06:44:33.605Z,11.78
2019-01-18T06:45:37.663Z,11.40
2019-01-18T06:46:41.747Z,11.88
2019-01-18T06:47:45.830Z,11.15
2019-01-18T06:48:51.020Z,11.18
2019-01-18T06:49:55.091Z,11.95
2019-01-18T06:50:59.155Z,11.83
2019-01-18T06:52:03.224Z,11.38
2019-01-18T06:53:07.414Z,11.50
2019-01-18T06:54:11.674Z,12.23
2019-01-18T06:55:15.747Z,12.15
2019-01-18T06:56:19.858Z,11.63
2019-01-18T06:57:23.952Z,12.00
2019-01-18T06:58:28.023Z,12.10
2019-01-18T06:59:32.108Z,13.03
2019-01-18T07:00:36.244Z,12.03
2019-01-18T07:01:40.352Z,13.40
2019-01-18T07:02:44.480Z,12.55
2019-01-18T07:03:48.562Z,12.53
2019-01-18T07:04:59.062Z,12.40
2019-01-18T07:06:03.188Z,11.63
2019-01-18T07:07:07.328Z,13.28
2019-01-18T07:08:11.612Z,12.60
2019-01-18T07:09:15.670Z,14.38
2019-01-18T07:10:20.874Z,12.95
2019-01-18T07:11:25.331Z,13.88
2019-01-18T07:12:29.483Z,13.35
2019-01-18T07:13:33.563Z,14.00
2019-01-18T07:14:37.695Z,13.55
2019-01-18T07:15:41.864Z,14.40
2019-01-18T07:16:45.979Z,13.08
2019-01-18T07:17:50.052Z,14.25
2019-01-18T07:18:54.467Z,13.28
2019-01-18T07:19:58.697Z,15.15
2019-01-18T07:21:02.800Z,14.50
2019-01-18T07:22:06.964Z,14.07
2019-01-18T07:23:11.323Z,13.48
2019-01-18T07:24:15.388Z,13.08
2019-01-18T07:25:30.251Z,14.93
2019-01-18T07:26:34.323Z,14.65
2019-01-18T07:27:38.448Z,13.40
2019-01-18T07:28:42.532Z,14.25
2019-01-18T07:29:46.603Z,16.10
2019-01-18T07:30:50.670Z,15.85
2019-01-18T07:31:54.735Z,14.90
2019-01-18T07:32:58.820Z,15.63
2019-01-18T07:34:02.979Z,15.93
2019-01-18T07:35:08.474Z,14.35
2019-01-18T07:36:12.847Z,14.68
2019-01-18T07:37:16.919Z,14.53
2019-01-18T07:38:21.038Z,15.75
2019-01-18T07:39:25.115Z,15.78
2019-01-18T07:40:29.207Z,14.18
2019-01-18T07:41:33.291Z,15.18
2019-01-18T07:42:37.430Z,14.58
2019-01-18T07:43:41.519Z,15.63
2019-01-18T07:44:45.648Z,15.53
2019-01-18T07:45:49.759Z,14.58
2019-01-18T07:46:53.844Z,15.30
2019-01-18T07:47:57.917Z,15.98
2019-01-18T07:49:02.014Z,15.28
2019-01-18T07:50:06.862Z,16.37
2019-01-18T07:51:11.216Z,14.80
2019-01-18T07:52:15.326Z,15.25
2019-01-18T07:53:19.409Z,14.65
2019-01-18T07:54:23.485Z,14.60
2019-01-18T07:55:27.610Z,14.75
2019-01-18T07:56:31.682Z,15.23
2019-01-18T07:57:35.753Z,14.90
2019-01-18T07:58:39.887Z,13.60
2019-01-18T07:59:43.958Z,15.15
2019-01-18T08:00:48.036Z,15.00
2019-01-18T08:01:52.171Z,14.98
2019-01-18T08:02:56.235Z,14.47
2019-01-18T08:04:00.339Z,14.85
2019-01-18T08:05:04.620Z,13.93
2019-01-18T08:06:08.800Z,15.75
2019-01-18T08:07:13.009Z,14.93
2019-01-18T08:08:17.067Z,15.38
2019-01-18T08:09:21.135Z,15.38
2019-01-18T08:10:25.241Z,16.05
2019-01-18T08:11:29.305Z,16.50
2019-01-18T08:12:33.390Z,16.17
2019-01-18T08:13:40.532Z,15.80
2019-01-18T08:14:44.628Z,16.60
2019-01-18T08:15:48.755Z,15.23
2019-01-18T08:16:52.850Z,15.85
2019-01-18T08:17:57.036Z,16.05
2019-01-18T08:19:01.121Z,16.23
2019-01-18T08:20:07.347Z,15.78
2019-01-18T08:21:11.694Z,15.78
2019-01-18T08:22:15.806Z,15.95
2019-01-18T08:23:19.884Z,16.25
2019-01-18T08:24:23.987Z,14.20
2019-01-18T08:25:28.077Z,16.00
2019-01-18T08:26:32.135Z,16.05
2019-01-18T08:27:36.221Z,15.32
2019-01-18T08:28:40.299Z,16.57
2019-01-18T08:29:44.365Z,15.83
2019-01-18T08:30:48.438Z,16.25
2019-01-18T08:31:52.550Z,16.60
2019-01-18T08:32:56.663Z,16.12
2019-01-18T08:34:00.738Z,15.85
2019-01-18T08:35:05.097Z,15.95
2019-01-18T08:36:09.277Z,16.00
2019-01-18T08:37:13.403Z,15.78
2019-01-18T08:38:17.478Z,17.00
2019-01-18T08:39:21.551Z,16.90
2019-01-18T08:40:36.584Z,17.25
2019-01-18T08:41:40.652Z,15.55
2019-01-18T08:42:44.734Z,17.73
2019-01-18T08:43:48.796Z,16.17
2019-01-18T08:44:52.874Z,16.85
2019-01-18T08:45:59.375Z,16.40
2019-01-18T08:47:03.435Z,16.37
2019-01-18T08:48:08.116Z,15.75
2019-01-18T08:49:12.498Z,16.10
2019-01-18T08:50:16.756Z,16.15
2019-01-18T08:51:20.819Z,16.70
2019-01-18T08:52:24.891Z,15.08
2019-01-18T08:53:28.954Z,14.98
2019-01-18T08:54:33.040Z,15.63
2019-01-18T08:55:37.114Z,16.12
2019-01-18T08:56:41.182Z,15.43
2019-01-18T08:57:45.235Z,15.00
2019-01-18T08:58:49.297Z,15.90
2019-01-18T08:59:53.364Z,15.70
2019-01-18T09:00:57.449Z,16.02
2019-01-18T09:02:01.531Z,15.23
2019-01-18T09:03:05.675Z,16.17
2019-01-18T09:04:09.823Z,15.55
2019-01-18T09:05:15.895Z,17.45
2019-01-18T09:06:19.950Z,17.25
2019-01-18T09:07:24.015Z,16.40
2019-01-18T09:08:28.076Z,15.30
2019-01-18T09:09:32.138Z,15.00
2019-01-18T09:10:36.302Z,15.75
2019-01-18T09:11:40.411Z,16.30
2019-01-18T09:12:44.466Z,16.07
2019-01-18T09:13:48.536Z,16.32
2019-01-18T09:14:52.620Z,16.40
2019-01-18T09:15:56.679Z,16.45
2019-01-18T09:17:00.731Z,17.27
2019-01-18T09:18:05.323Z,17.15
2019-01-18T09:19:09.631Z,16.73
2019-01-18T09:20:16.351Z,15.25
2019-01-18T09:21:20.403Z,16.12
2019-01-18T09:22:24.555Z,16.25
2019-01-18T09:23:28.643Z,16.85
2019-01-18T09:24:32.707Z,15.78
2019-01-18T09:25:36.778Z,15.75
2019-01-18T09:26:40.834Z,15.03
2019-01-18T09:27:44.902Z,15.88
2019-01-18T09:28:49.087Z,16.40
2019-01-18T09:29:53.148Z,14.58
2019-01-18T09:30:57.227Z,16.00
2019-01-18T09:32:01.292Z,15.48
2019-01-18T09:33:07.748Z,15.93
2019-01-18T09:34:12.079Z,15.38
2019-01-18T09:35:16.931Z,15.80
2019-01-18T09:36:21.040Z,16.37
2019-01-18T09:37:25.107Z,16.30
2019-01-18T09:38:29.175Z,16.00
2019-01-18T09:39:33.245Z,16.52
2019-01-18T09:40:37.313Z,16.30
2019-01-18T09:41:41.391Z,16.48
2019-01-18T09:42:45.465Z,16.80
2019-01-18T09:43:49.530Z,17.57
2019-01-18T09:44:53.613Z,15.88
2019-01-18T09:45:57.680Z,16.97
2019-01-18T09:47:01.756Z,14.75
2019-01-18T09:48:07.127Z,15.78
2019-01-18T09:49:11.395Z,16.02
2019-01-18T09:50:17.517Z,16.73
2019-01-18T09:51:21.574Z,16.95
2019-01-18T09:52:25.651Z,16.85
2019-01-18T09:53:29.716Z,15.35
2019-01-18T09:54:33.779Z,15.83
2019-01-18T09:55:37.907Z,14.75
2019-01-18T09:56:41.962Z,14.98
2019-01-18T09:57:46.044Z,15.38
2019-01-18T09:58:50.099Z,15.40
2019-01-18T09:59:54.168Z,15.68
2019-01-18T10:00:58.300Z,14.73
2019-01-18T10:02:02.370Z,14.18
2019-01-18T10:03:06.554Z,15.08
2019-01-18T10:04:10.906Z,14.07
2019-01-18T10:05:14.980Z,14.55
2019-01-18T10:06:19.044Z,13.80
2019-01-18T10:07:23.131Z,12.90
2019-01-18T10:08:27.255Z,13.78
2019-01-18T10:09:31.331Z,13.65
2019-01-18T10:10:35.456Z,14.43
2019-01-18T10:11:39.559Z,13.95
2019-01-18T10:12:43.655Z,14.00
2019-01-18T10:13:47.702Z,13.18
2019-01-18T10:14:51.788Z,13.48
2019-01-18T10:15:55.855Z,14.00
2019-01-18T10:16:59.973Z,13.68
2019-01-18T10:18:04.071Z,13.90
2019-01-18T10:19:08.265Z,12.30
2019-01-18T10:20:13.888Z,13.78
2019-01-18T10:21:17.955Z,13.20
2019-01-18T10:22:22.023Z,11.35
2019-01-18T10:23:26.114Z,11.68
2019-01-18T10:24:30.243Z,11.90
2019-01-18T10:25:34.358Z,11.85
2019-01-18T10:26:38.435Z,11.30
2019-01-18T10:27:42.505Z,12.28
2019-01-18T10:28:46.600Z,12.50
2019-01-18T10:29:50.659Z,12.20
2019-01-18T10:30:54.819Z,12.90
2019-01-18T10:31:58.878Z,13.38
2019-01-18T10:33:02.968Z,12.85
2019-01-18T10:34:07.068Z,12.60
2019-01-18T10:35:11.640Z,13.68
2019-01-18T10:36:15.788Z,12.60
2019-01-18T10:37:19.863Z,13.45
2019-01-18T10:38:23.955Z,13.28
2019-01-18T10:39:28.068Z,13.38
2019-01-18T10:40:32.170Z,13.72
2019-01-18T10:41:36.239Z,14.65
2019-01-18T10:42:40.308Z,13.93
2019-01-18T10:43:44.460Z,14.20
2019-01-18T10:44:48.510Z,14.23
2019-01-18T10:45:52.598Z,13.90
2019-01-18T10:46:56.690Z,13.03
2019-01-18T10:48:00.759Z,14.50
2019-01-18T10:49:04.855Z,13.83
2019-01-18T10:50:11.949Z,13.30
2019-01-18T10:51:16.076Z,13.45
2019-01-18T10:52:20.240Z,13.85
2019-01-18T10:53:24.302Z,14.43
2019-01-18T10:54:28.391Z,15.60
2019-01-18T10:55:32.483Z,16.30
2019-01-18T10:56:36.552Z,15.72
2019-01-18T10:57:40.654Z,15.35
2019-01-18T10:58:44.711Z,15.23
2019-01-18T10:59:48.789Z,16.02
2019-01-18T11:00:52.867Z,15.23
2019-01-18T11:02:03.272Z,15.10
2019-01-18T11:03:02.727Z,14.98
2019-01-18T11:04:07.115Z,15.18
2019-01-18T11:05:11.450Z,17.10
2019-01-18T11:06:15.560Z,14.65
2019-01-18T11:07:19.620Z,14.90
2019-01-18T11:08:23.666Z,15.23
2019-01-18T11:09:27.743Z,15.50
2019-01-18T11:10:31.851Z,16.12
2019-01-18T11:11:35.907Z,15.38
2019-01-18T11:12:40.051Z,15.63
2019-01-18T11:13:44.123Z,16.87
2019-01-18T11:14:48.195Z,15.70
2019-01-18T11:15:52.281Z,16.02
2019-01-18T11:16:56.337Z,15.72
2019-01-18T11:18:00.454Z,15.53
2019-01-18T11:19:04.529Z,13.72
2019-01-18T11:20:17.584Z,14.15
2019-01-18T11:21:22.987Z,14.65
2019-01-18T11:22:27.061Z,13.65
2019-01-18T11:23:31.141Z,13.85
2019-01-18T11:24:35.195Z,14.85
2019-01-18T11:25:39.275Z,13.78
2019-01-18T11:26:43.394Z,13.35
2019-01-18T11:27:47.464Z,14.95
2019-01-18T11:28:51.538Z,13.70
2019-01-18T11:29:55.616Z,13.22
2019-01-18T11:30:59.692Z,13.20
2019-01-18T11:32:03.754Z,12.53
2019-01-18T11:33:07.923Z,12.85
2019-01-18T11:34:12.160Z,12.00
2019-01-18T11:35:16.483Z,12.85
2019-01-18T11:36:20.563Z,12.95
2019-01-18T11:37:24.627Z,12.03
2019-01-18T11:38:28.694Z,13.55
2019-01-18T11:39:32.765Z,12.20
2019-01-18T11:40:36.836Z,12.18
2019-01-18T11:41:40.921Z,12.53
2019-01-18T11:42:44.991Z,12.25
2019-01-18T11:43:49.063Z,13.40
2019-01-18T11:44:53.151Z,12.75
2019-01-18T11:45:57.220Z,14.25
2019-01-18T11:47:01.308Z,12.73
2019-01-18T11:48:05.538Z,14.80
2019-01-18T11:49:09.968Z,13.70
2019-01-18T11:50:16.250Z,13.30
2019-01-18T11:51:20.314Z,12.47
2019-01-18T11:52:24.426Z,12.03
2019-01-18T11:53:28.559Z,12.73
2019-01-18T11:54:32.644Z,13.53
2019-01-18T11:55:36.695Z,13.35
2019-01-18T11:56:40.781Z,13.30
2019-01-18T11:57:44.862Z,10.98
2019-01-18T11:58:48.931Z,14.98
2019-01-18T11:59:52.991Z,14.87
2019-01-18T12:00:57.056Z,14.95
2019-01-18T12:02:01.119Z,16.75
2019-01-18T12:03:05.418Z,16.67
2019-01-18T12:04:09.595Z,15.93
2019-01-18T12:05:13.833Z,14.07
2019-01-18T12:06:17.923Z,15.93
2019-01-18T12:07:22.045Z,16.25
2019-01-18T12:08:26.120Z,16.82
2019-01-18T12:09:30.197Z,15.95
2019-01-18T12:10:34.374Z,15.53
2019-01-18T12:11:38.469Z,15.18
2019-01-18T12:12:42.556Z,16.87
2019-01-18T12:13:46.655Z,17.32
2019-01-18T12:14:50.714Z,16.67
2019-01-18T12:15:54.782Z,16.93
2019-01-18T12:16:58.839Z,16.95
2019-01-18T12:18:03.323Z,15.58
2019-01-18T12:19:07.503Z,17.15
2019-01-18T12:20:14.443Z,16.82
2019-01-18T12:21:18.506Z,16.65
2019-01-18T12:22:22.563Z,17.20
2019-01-18T12:23:26.636Z,17.02
2019-01-18T12:24:30.708Z,16.75
2019-01-18T12:25:34.798Z,18.02
2019-01-18T12:26:38.860Z,17.00
2019-01-18T12:27:42.930Z,14.45
2019-01-18T12:28:47.009Z,17.15
2019-01-18T12:29:51.075Z,17.27
2019-01-18T12:30:55.142Z,17.55
2019-01-18T12:31:59.199Z,17.15
2019-01-18T12:33:03.262Z,17.92
2019-01-18T12:34:07.407Z,17.50
2019-01-18T12:35:11.581Z,17.32
2019-01-18T12:36:15.681Z,17.60
2019-01-18T12:37:19.746Z,14.87
2019-01-18T12:38:23.851Z,14.60
2019-01-18T12:39:27.919Z,14.87
2019-01-18T12:40:31.971Z,12.98
2019-01-18T12:41:36.090Z,11.90
2019-01-18T12:42:40.155Z,10.58
2019-01-18T12:43:44.235Z,9.38
2019-01-18T12:44:48.295Z,9.23
2019-01-18T12:45:52.346Z,9.80
2019-01-18T12:46:56.419Z,9.13
2019-01-18T12:48:00.494Z,9.70
2019-01-18T12:49:04.580Z,9.68
2019-01-18T12:50:12.369Z,10.03
2019-01-18T12:51:16.426Z,10.20
2019-01-18T12:52:20.559Z,9.85
2019-01-18T12:53:24.619Z,9.18
2019-01-18T12:54:28.699Z,9.93
2019-01-18T12:55:33.089Z,9.75
2019-01-18T12:56:37.136Z,9.20
2019-01-18T12:57:41.203Z,9.43
2019-01-18T12:58:45.273Z,9.48
2019-01-18T12:59:49.374Z,9.43
2019-01-18T13:00:53.418Z,9.30
2019-01-18T13:01:57.479Z,10.70
2019-01-18T13:03:01.562Z,10.90
2019-01-18T13:04:08.240Z,10.50
2019-01-18T13:05:14.073Z,9.25
2019-01-18T13:06:18.151Z,9.30
2019-01-18T13:07:22.223Z,8.75
2019-01-18T13:08:26.315Z,9.10
2019-01-18T13:09:30.415Z,8.75
2019-01-18T13:10:34.497Z,9.03
2019-01-18T13:11:38.559Z,9.20
2019-01-18T13:12:42.626Z,8.95
2019-01-18T13:13:46.692Z,8.83
2019-01-18T13:14:50.767Z,8.65
2019-01-18T13:16:00.599Z,8.98
2019-01-18T13:17:04.651Z,9.33
2019-01-18T13:18:08.786Z,9.23
2019-01-18T13:19:18.993Z,8.85
2019-01-18T13:20:23.072Z,8.13
2019-01-18T13:21:27.135Z,8.70
2019-01-18T13:22:31.199Z,8.48
2019-01-18T13:23:35.267Z,9.00
2019-01-18T13:24:39.326Z,9.00
2019-01-18T13:25:43.407Z,8.33
2019-01-18T13:26:47.458Z,6.97
2019-01-18T13:27:51.518Z,7.78
2019-01-18T13:28:55.591Z,7.80
2019-01-18T13:29:59.656Z,7.87
2019-01-18T13:31:03.745Z,7.78
2019-01-18T13:32:07.827Z,7.92
2019-01-18T13:33:12.102Z,7.70
2019-01-18T13:34:16.194Z,7.53
2019-01-18T13:35:20.252Z,8.15
2019-01-18T13:36:24.366Z,7.55
2019-01-18T13:37:28.471Z,7.22
2019-01-18T13:38:32.527Z,7.55
2019-01-18T13:39:36.586Z,7.05
2019-01-18T13:40:40.647Z,7.60
2019-01-18T13:41:44.717Z,8.08
2019-01-18T13:42:48.839Z,8.08
2019-01-18T13:43:52.971Z,8.45
2019-01-18T13:44:57.044Z,8.10
2019-01-18T13:46:01.109Z,8.23
2019-01-18T13:47:05.230Z,8.95
2019-01-18T13:48:09.398Z,8.15
2019-01-18T13:49:13.647Z,8.73
2019-01-18T13:50:17.895Z,7.92
2019-01-18T13:51:22.011Z,8.20
2019-01-18T13:52:26.079Z,7.65
2019-01-18T13:53:30.135Z,7.95
2019-01-18T13:54:34.212Z,8.45
2019-01-18T13:55:38.275Z,8.33
2019-01-18T13:56:42.348Z,8.15
2019-01-18T13:57:46.415Z,8.85
2019-01-18T13:58:50.475Z,8.55
2019-01-18T13:59:54.526Z,8.20